Harrisville, MI

1:11 AM EST on February 13, 2016 (GMT -0500)
Oscoda-Wurtsmith | | Change Station
CLOSE
Current Station
Airport
Location: Oscoda,
Elevation: 633 ft
Nearby Weather Stations
Active Advisory: Wind Chill Advisory

Elev 633 ft 44.45 °N, 83.39 °W | Updated 18 minutes ago

Partly Cloudy
Partly Cloudy
0 °F
Feels Like -18 °F
N
13
Wind Variable Wind from NNW

Today
High -- | Low -- °F
--% Chance of Precip.
Yesterday
High -- | Low -- °F
Precip. -- in
Pressure 30.25 in
Visibility 10.0 miles
Clouds Scattered Clouds 1000 ft
Scattered Clouds 1700 ft
Windchill -18 °F
Dew Point -8 °F
Humidity 69%
Rainfall 0.00 in
Snow Depth Not available.
7:37 AM 5:58 PM
Waxing Crescent, 27% visible
METAR KOSC 130553Z AUTO 33011KT 10SM SCT010 SCT017 M18/M22 A3025 RMK AO2 T11771221 11140 21177
Pressure 30.25 in
Visibility 10.0 miles
Clouds Scattered Clouds 1000 ft
Scattered Clouds 1700 ft
Windchill -18 °F
Dew Point -8 °F
Humidity 69%
Rainfall 0.00 in
Snow Depth Not available.
7:37 AM 5:58 PM
Waxing Crescent, 27% visible
METAR KOSC 130553Z AUTO 33011KT 10SM SCT010 SCT017 M18/M22 A3025 RMK AO2 T11771221 11140 21177

10-Day Weather Forecast

Almanac

Astronomy

Feb. 13, 2016 Rise Set
Actual Time
Civil Twilight
Nautical Twilight
Astronomical Twilight
Moon
Length of Visible Light
Length of Day
Tomorrow will be .
, % of the Moon is Illuminated

Today's Extremes

State Highs State Lows

Community

WunderPhotos

Upload Photos

1,892,513 photos uploaded!

WunderBlog® & News

Nearby

Air Quality

  Air Quality AQ Index Pollutant
Not available.

Snow Depth

Station Depth Elevation

Earthquake Activity

City Distance Mag. Time & Date
Minimum magnitude displayed is 2.5.

Coastal Water Temperatures

Place Temperature

Stations

Nearby Weather Stations

Station Location Temp. Windchill Dew Point Humidity Wind Precip. Elev Updated Type
                   

Watches & Warnings

Wind Chill Advisory
Issued: 9:14 PM EST Feb. 12, 2016 – National Weather Service

... Wind Chill Advisory remains in effect until noon EST
Saturday...

* wind chill values will reach 20 to 25 below zero late tonight
and Saturday morning.

* The coldest readings are expected along the Lake Huron coast...
   including Cheboygan and Rogers City.

Precautionary/preparedness actions...

A Wind Chill Advisory means that very cold air and winds will
combine to generate low wind chills. This will result in frost
bite and lead to hypothermia if precautions are not taken. If you
must venture outdoors... make sure you wear a hat and gloves.